sensor_id;sensor_type;location;lat;lon;timestamp;pressure;altitude;pressure_sealevel;temperature;humidity
63351;BME280;64988;51.058;17.040;2023-03-25T00:05:22;99102.78;;;12.86;56.74
63351;BME280;64988;51.058;17.040;2023-03-25T00:10:53;99096.34;;;12.79;57.06
63351;BME280;64988;51.058;17.040;2023-03-25T00:16:21;99098.88;;;12.73;57.00
63351;BME280;64988;51.058;17.040;2023-03-25T00:21:48;99081.72;;;12.64;57.27
63351;BME280;64988;51.058;17.040;2023-03-25T00:27:19;99081.06;;;12.62;56.98
63351;BME280;64988;51.058;17.040;2023-03-25T00:32:46;99070.50;;;12.51;57.42
63351;BME280;64988;51.058;17.040;2023-03-25T00:38:19;99067.81;;;12.51;57.84
63351;BME280;64988;51.058;17.040;2023-03-25T00:43:46;99070.16;;;12.46;57.54
63351;BME280;64988;51.058;17.040;2023-03-25T00:49:13;99079.41;;;12.35;57.91
63351;BME280;64988;51.058;17.040;2023-03-25T00:54:41;99081.06;;;12.28;58.74
63351;BME280;64988;51.058;17.040;2023-03-25T01:00:12;99078.66;;;12.25;58.10
63351;BME280;64988;51.058;17.040;2023-03-25T01:05:47;99081.66;;;12.14;58.57
63351;BME280;64988;51.058;17.040;2023-03-25T01:11:20;99079.28;;;12.11;59.02
63351;BME280;64988;51.058;17.040;2023-03-25T01:16:49;99068.78;;;12.08;59.27
63351;BME280;64988;51.058;17.040;2023-03-25T01:22:16;99065.38;;;12.06;58.99
63351;BME280;64988;51.058;17.040;2023-03-25T01:27:44;99063.00;;;12.03;59.60
63351;BME280;64988;51.058;17.040;2023-03-25T01:33:12;99057.91;;;12.00;59.10
63351;BME280;64988;51.058;17.040;2023-03-25T01:38:41;99051.75;;;11.90;59.97
63351;BME280;64988;51.058;17.040;2023-03-25T01:49:55;99043.53;;;11.99;59.38
63351;BME280;64988;51.058;17.040;2023-03-25T01:55:24;99038.63;;;11.95;60.03
63351;BME280;64988;51.058;17.040;2023-03-25T02:00:53;99030.84;;;11.92;60.28
63351;BME280;64988;51.058;17.040;2023-03-25T02:06:26;99023.19;;;11.87;60.04
63351;BME280;64988;51.058;17.040;2023-03-25T02:11:58;99023.84;;;11.81;60.43
63351;BME280;64988;51.058;17.040;2023-03-25T02:40:56;99010.34;;;11.64;60.21
63351;BME280;64988;51.058;17.040;2023-03-25T02:46:30;99005.78;;;11.64;60.30
63351;BME280;64988;51.058;17.040;2023-03-25T02:52:07;99008.97;;;11.59;60.90
63351;BME280;64988;51.058;17.040;2023-03-25T02:57:41;99021.88;;;11.48;60.78
63351;BME280;64988;51.058;17.040;2023-03-25T03:03:09;99022.38;;;11.43;60.79
63351;BME280;64988;51.058;17.040;2023-03-25T03:14:32;99020.34;;;11.45;61.26
63351;BME280;64988;51.058;17.040;2023-03-25T03:20:16;99018.19;;;11.49;60.52
63351;BME280;64988;51.058;17.040;2023-03-25T03:26:16;99020.50;;;11.44;60.94
63351;BME280;64988;51.058;17.040;2023-03-25T03:37:43;99029.22;;;11.38;61.45
63351;BME280;64988;51.058;17.040;2023-03-25T03:43:17;99037.75;;;11.25;61.21
63351;BME280;64988;51.058;17.040;2023-03-25T03:48:54;99041.22;;;11.18;62.21
63351;BME280;64988;51.058;17.040;2023-03-25T03:54:26;99039.75;;;11.05;61.96
63351;BME280;64988;51.058;17.040;2023-03-25T04:00:05;99043.25;;;10.98;62.95
63351;BME280;64988;51.058;17.040;2023-03-25T04:05:42;99041.16;;;10.92;62.53
63351;BME280;64988;51.058;17.040;2023-03-25T04:11:19;99037.06;;;10.88;63.08
63351;BME280;64988;51.058;17.040;2023-03-25T04:16:49;99037.28;;;10.77;63.02
63351;BME280;64988;51.058;17.040;2023-03-25T04:22:20;99042.66;;;10.77;63.41
63351;BME280;64988;51.058;17.040;2023-03-25T04:27:48;99039.19;;;10.67;62.80
63351;BME280;64988;51.058;17.040;2023-03-25T04:33:15;99048.34;;;10.56;63.22
63351;BME280;64988;51.058;17.040;2023-03-25T04:38:44;99048.66;;;10.53;63.79
63351;BME280;64988;51.058;17.040;2023-03-25T04:44:12;99047.56;;;10.46;63.78
63351;BME280;64988;51.058;17.040;2023-03-25T04:49:40;99054.81;;;10.45;63.26
63351;BME280;64988;51.058;17.040;2023-03-25T04:55:12;99052.59;;;10.31;64.60
63351;BME280;64988;51.058;17.040;2023-03-25T05:00:48;99061.44;;;10.51;64.22
63351;BME280;64988;51.058;17.040;2023-03-25T05:06:17;99065.53;;;10.55;64.13
63351;BME280;64988;51.058;17.040;2023-03-25T05:11:47;99055.00;;;10.62;63.44
63351;BME280;64988;51.058;17.040;2023-03-25T05:17:15;99055.25;;;10.86;63.18
63351;BME280;64988;51.058;17.040;2023-03-25T05:22:43;99052.22;;;11.59;62.56
63351;BME280;64988;51.058;17.040;2023-03-25T05:28:12;99044.66;;;13.55;57.61
63351;BME280;64988;51.058;17.040;2023-03-25T05:33:40;99030.53;;;14.55;53.26
63351;BME280;64988;51.058;17.040;2023-03-25T05:39:09;99042.22;;;14.94;52.43
63351;BME280;64988;51.058;17.040;2023-03-25T05:44:37;99029.13;;;16.98;47.09
63351;BME280;64988;51.058;17.040;2023-03-25T05:50:12;99047.53;;;19.05;42.77
63351;BME280;64988;51.058;17.040;2023-03-25T05:55:43;99047.47;;;21.46;36.74
63351;BME280;64988;51.058;17.040;2023-03-25T06:01:13;99057.66;;;22.87;33.68
63351;BME280;64988;51.058;17.040;2023-03-25T06:06:58;99060.47;;;24.65;30.64
63351;BME280;64988;51.058;17.040;2023-03-25T06:12:26;99073.47;;;26.84;27.60
63351;BME280;64988;51.058;17.040;2023-03-25T06:17:55;99070.66;;;27.66;25.88
63351;BME280;64988;51.058;17.040;2023-03-25T06:23:24;99053.41;;;28.17;25.46
63351;BME280;64988;51.058;17.040;2023-03-25T06:28:52;99055.16;;;30.35;22.85
63351;BME280;64988;51.058;17.040;2023-03-25T06:34:21;99064.88;;;32.11;21.38
63351;BME280;64988;51.058;17.040;2023-03-25T06:39:49;99063.00;;;30.43;21.83
63351;BME280;64988;51.058;17.040;2023-03-25T06:45:20;99065.56;;;27.84;24.75
63351;BME280;64988;51.058;17.040;2023-03-25T06:51:02;99056.16;;;25.60;27.64
63351;BME280;64988;51.058;17.040;2023-03-25T06:56:30;99069.97;;;23.81;30.84
63351;BME280;64988;51.058;17.040;2023-03-25T07:01:58;99070.97;;;22.47;33.48
63351;BME280;64988;51.058;17.040;2023-03-25T07:07:28;99051.16;;;20.82;37.33
63351;BME280;64988;51.058;17.040;2023-03-25T07:12:55;99059.06;;;19.54;41.47
63351;BME280;64988;51.058;17.040;2023-03-25T07:18:23;99059.19;;;18.72;43.86
63351;BME280;64988;51.058;17.040;2023-03-25T07:23:51;99062.69;;;18.32;44.75
63351;BME280;64988;51.058;17.040;2023-03-25T07:29:21;99055.72;;;17.74;46.51
63351;BME280;64988;51.058;17.040;2023-03-25T07:34:51;99066.66;;;17.74;46.60
63351;BME280;64988;51.058;17.040;2023-03-25T07:40:21;99058.53;;;17.59;46.39
63351;BME280;64988;51.058;17.040;2023-03-25T07:45:49;99056.56;;;17.32;46.29
63351;BME280;64988;51.058;17.040;2023-03-25T07:51:17;99066.00;;;17.51;46.15
63351;BME280;64988;51.058;17.040;2023-03-25T07:56:44;99065.50;;;18.11;44.34
63351;BME280;64988;51.058;17.040;2023-03-25T08:02:13;99058.31;;;18.72;42.48
63351;BME280;64988;51.058;17.040;2023-03-25T08:07:40;99054.66;;;19.73;40.09
63351;BME280;64988;51.058;17.040;2023-03-25T08:13:08;99051.91;;;20.12;38.56
63351;BME280;64988;51.058;17.040;2023-03-25T08:18:35;99051.25;;;20.50;37.52
63351;BME280;64988;51.058;17.040;2023-03-25T08:24:04;99059.88;;;22.36;36.02
63351;BME280;64988;51.058;17.040;2023-03-25T08:29:31;99062.66;;;23.45;32.50
63351;BME280;64988;51.058;17.040;2023-03-25T08:35:01;99061.22;;;23.42;31.03
63351;BME280;64988;51.058;17.040;2023-03-25T08:40:33;99065.88;;;23.24;31.45
63351;BME280;64988;51.058;17.040;2023-03-25T08:46:00;99062.47;;;22.92;32.06
63351;BME280;64988;51.058;17.040;2023-03-25T08:51:29;99062.72;;;22.47;32.44
63351;BME280;64988;51.058;17.040;2023-03-25T08:56:56;99061.31;;;21.95;33.29
63351;BME280;64988;51.058;17.040;2023-03-25T09:02:24;99056.97;;;21.06;34.39
63351;BME280;64988;51.058;17.040;2023-03-25T09:07:52;99038.81;;;20.54;36.09
63351;BME280;64988;51.058;17.040;2023-03-25T09:13:19;99032.47;;;20.53;35.68
63351;BME280;64988;51.058;17.040;2023-03-25T09:18:46;99034.69;;;20.82;34.92
63351;BME280;64988;51.058;17.040;2023-03-25T09:24:13;99042.53;;;20.72;35.16
63351;BME280;64988;51.058;17.040;2023-03-25T09:29:40;99043.78;;;22.58;33.39
63351;BME280;64988;51.058;17.040;2023-03-25T09:35:07;99032.50;;;24.49;30.35
63351;BME280;64988;51.058;17.040;2023-03-25T09:40:35;99038.00;;;24.96;28.16
63351;BME280;64988;51.058;17.040;2023-03-25T09:46:04;99044.75;;;24.30;27.32
63351;BME280;64988;51.058;17.040;2023-03-25T09:51:34;99032.63;;;23.37;28.33
63351;BME280;64988;51.058;17.040;2023-03-25T09:57:08;99032.34;;;22.79;28.58
63351;BME280;64988;51.058;17.040;2023-03-25T10:02:49;99042.56;;;22.35;29.29
63351;BME280;64988;51.058;17.040;2023-03-25T10:20:19;99032.41;;;21.86;30.08
63351;BME280;64988;51.058;17.040;2023-03-25T10:25:54;99030.91;;;20.83;32.28
63351;BME280;64988;51.058;17.040;2023-03-25T10:31:26;99015.78;;;21.50;31.62
63351;BME280;64988;51.058;17.040;2023-03-25T10:36:59;99022.81;;;21.71;29.64
63351;BME280;64988;51.058;17.040;2023-03-25T10:42:34;99014.06;;;22.48;28.90
63351;BME280;64988;51.058;17.040;2023-03-25T10:48:23;99006.47;;;23.46;27.63
63351;BME280;64988;51.058;17.040;2023-03-25T10:53:53;99002.69;;;23.29;27.02
63351;BME280;64988;51.058;17.040;2023-03-25T10:59:25;99000.47;;;22.53;28.69
63351;BME280;64988;51.058;17.040;2023-03-25T11:05:04;98992.06;;;22.48;28.91
63351;BME280;64988;51.058;17.040;2023-03-25T11:10:34;98999.28;;;22.67;28.71
63351;BME280;64988;51.058;17.040;2023-03-25T11:16:02;98979.56;;;22.70;28.88
63351;BME280;64988;51.058;17.040;2023-03-25T11:21:34;98977.78;;;22.39;29.10
63351;BME280;64988;51.058;17.040;2023-03-25T11:27:06;98968.84;;;22.44;27.94
63351;BME280;64988;51.058;17.040;2023-03-25T11:32:36;98972.50;;;23.22;27.62
63351;BME280;64988;51.058;17.040;2023-03-25T11:38:19;98968.91;;;23.51;26.87
63351;BME280;64988;51.058;17.040;2023-03-25T11:43:48;98967.38;;;23.79;26.54
63351;BME280;64988;51.058;17.040;2023-03-25T11:49:19;98972.66;;;23.92;26.16
63351;BME280;64988;51.058;17.040;2023-03-25T11:54:52;98968.59;;;24.41;25.30
63351;BME280;64988;51.058;17.040;2023-03-25T12:00:30;98984.91;;;23.84;25.72
63351;BME280;64988;51.058;17.040;2023-03-25T12:06:04;98995.94;;;23.43;26.73
63351;BME280;64988;51.058;17.040;2023-03-25T12:11:41;99007.63;;;22.36;29.45
63351;BME280;64988;51.058;17.040;2023-03-25T12:23:51;99021.31;;;20.55;33.13
63351;BME280;64988;51.058;17.040;2023-03-25T12:52:40;99060.03;;;18.45;45.49
63351;BME280;64988;51.058;17.040;2023-03-25T13:04:23;99057.28;;;19.27;43.25
63351;BME280;64988;51.058;17.040;2023-03-25T13:10:19;99043.28;;;19.82;43.14
63351;BME280;64988;51.058;17.040;2023-03-25T13:16:02;99037.34;;;20.25;40.48
63351;BME280;64988;51.058;17.040;2023-03-25T13:21:42;99038.88;;;18.95;39.73
63351;BME280;64988;51.058;17.040;2023-03-25T13:27:12;99021.38;;;18.82;40.46
63351;BME280;64988;51.058;17.040;2023-03-25T13:32:49;99028.59;;;19.03;41.21
63351;BME280;64988;51.058;17.040;2023-03-25T13:38:26;99026.69;;;19.04;39.21
63351;BME280;64988;51.058;17.040;2023-03-25T13:49:36;99037.03;;;18.26;40.47
63351;BME280;64988;51.058;17.040;2023-03-25T13:55:19;99046.16;;;17.42;42.25
63351;BME280;64988;51.058;17.040;2023-03-25T14:12:22;99009.91;;;18.25;41.57
63351;BME280;64988;51.058;17.040;2023-03-25T14:17:53;99000.25;;;19.30;41.96
63351;BME280;64988;51.058;17.040;2023-03-25T14:23:22;99005.78;;;19.89;36.14
63351;BME280;64988;51.058;17.040;2023-03-25T14:28:53;98993.97;;;19.96;33.81
63351;BME280;64988;51.058;17.040;2023-03-25T14:34:25;98998.19;;;19.46;33.72
63351;BME280;64988;51.058;17.040;2023-03-25T14:39:59;99007.69;;;18.76;35.20
63351;BME280;64988;51.058;17.040;2023-03-25T14:45:33;99007.63;;;18.28;36.50
63351;BME280;64988;51.058;17.040;2023-03-25T14:51:18;99014.78;;;17.74;36.96
63351;BME280;64988;51.058;17.040;2023-03-25T14:57:05;99012.25;;;17.51;37.06
63351;BME280;64988;51.058;17.040;2023-03-25T15:02:34;99006.63;;;17.31;37.86
63351;BME280;64988;51.058;17.040;2023-03-25T15:13:43;99045.88;;;16.95;40.33
63351;BME280;64988;51.058;17.040;2023-03-25T15:19:15;99089.91;;;15.96;48.53
63351;BME280;64988;51.058;17.040;2023-03-25T15:24:48;99064.81;;;14.95;52.67
63351;BME280;64988;51.058;17.040;2023-03-25T15:41:42;99031.59;;;13.83;55.54
63351;BME280;64988;51.058;17.040;2023-03-25T16:04:47;98998.50;;;14.81;53.43
63351;BME280;64988;51.058;17.040;2023-03-25T16:10:27;98992.06;;;14.74;52.88
63351;BME280;64988;51.058;17.040;2023-03-25T16:15:57;98985.34;;;14.23;54.24
63351;BME280;64988;51.058;17.040;2023-03-25T16:21:31;98991.69;;;13.99;54.72
63351;BME280;64988;51.058;17.040;2023-03-25T16:27:10;98994.34;;;13.60;56.64
63351;BME280;64988;51.058;17.040;2023-03-25T16:32:38;98991.47;;;13.38;56.74
63351;BME280;64988;51.058;17.040;2023-03-25T16:38:05;98999.25;;;12.92;57.39
63351;BME280;64988;51.058;17.040;2023-03-25T16:43:34;98992.25;;;12.74;56.34
63351;BME280;64988;51.058;17.040;2023-03-25T16:49:03;98996.56;;;12.42;57.71
63351;BME280;64988;51.058;17.040;2023-03-25T16:54:42;99002.38;;;12.14;58.16
63351;BME280;64988;51.058;17.040;2023-03-25T17:00:14;99005.28;;;11.86;58.46
63351;BME280;64988;51.058;17.040;2023-03-25T17:06:11;98990.59;;;11.63;58.67
63351;BME280;64988;51.058;17.040;2023-03-25T17:11:44;98983.78;;;11.33;59.81
63351;BME280;64988;51.058;17.040;2023-03-25T17:17:41;98988.50;;;11.31;59.81
63351;BME280;64988;51.058;17.040;2023-03-25T17:34:23;99004.97;;;11.02;61.40
63351;BME280;64988;51.058;17.040;2023-03-25T17:39:52;99009.28;;;10.78;62.66
63351;BME280;64988;51.058;17.040;2023-03-25T17:45:23;99004.66;;;10.52;62.87
63351;BME280;64988;51.058;17.040;2023-03-25T17:50:53;99006.31;;;10.36;63.80
63351;BME280;64988;51.058;17.040;2023-03-25T17:56:24;99008.88;;;10.28;63.96
63351;BME280;64988;51.058;17.040;2023-03-25T18:01:53;98998.47;;;10.15;64.37
63351;BME280;64988;51.058;17.040;2023-03-25T18:07:20;99000.72;;;10.20;64.13
63351;BME280;64988;51.058;17.040;2023-03-25T18:12:47;99003.31;;;10.02;64.70
63351;BME280;64988;51.058;17.040;2023-03-25T18:18:18;99005.19;;;10.01;63.77
63351;BME280;64988;51.058;17.040;2023-03-25T18:23:47;99005.75;;;9.95;63.74
63351;BME280;64988;51.058;17.040;2023-03-25T18:29:21;99018.66;;;9.92;64.27
63351;BME280;64988;51.058;17.040;2023-03-25T18:34:50;99040.09;;;9.93;64.18
63351;BME280;64988;51.058;17.040;2023-03-25T18:40:22;99050.97;;;10.11;64.12
63351;BME280;64988;51.058;17.040;2023-03-25T18:45:50;99058.59;;;10.25;64.45
63351;BME280;64988;51.058;17.040;2023-03-25T18:51:17;99060.09;;;10.65;62.87
63351;BME280;64988;51.058;17.040;2023-03-25T18:56:45;99074.31;;;11.02;62.34
63351;BME280;64988;51.058;17.040;2023-03-25T19:02:14;99067.22;;;11.19;61.21
63351;BME280;64988;51.058;17.040;2023-03-25T19:07:42;99072.84;;;11.25;61.36
63351;BME280;64988;51.058;17.040;2023-03-25T19:13:09;99059.13;;;11.36;60.24
63351;BME280;64988;51.058;17.040;2023-03-25T19:18:37;99062.03;;;11.43;60.43
63351;BME280;64988;51.058;17.040;2023-03-25T19:24:04;99065.19;;;11.38;60.58
63351;BME280;64988;51.058;17.040;2023-03-25T19:29:34;99067.06;;;11.38;59.75
63351;BME280;64988;51.058;17.040;2023-03-25T19:35:04;99071.31;;;11.40;59.24
63351;BME280;64988;51.058;17.040;2023-03-25T19:40:35;99076.41;;;11.43;59.87
63351;BME280;64988;51.058;17.040;2023-03-25T19:46:04;99061.72;;;11.28;60.18
63351;BME280;64988;51.058;17.040;2023-03-25T19:51:34;99060.19;;;11.26;59.84
63351;BME280;64988;51.058;17.040;2023-03-25T19:57:02;99064.28;;;11.12;60.05
63351;BME280;64988;51.058;17.040;2023-03-25T20:02:30;99068.84;;;10.94;59.35
63351;BME280;64988;51.058;17.040;2023-03-25T20:08:00;99070.13;;;10.72;60.34
63351;BME280;64988;51.058;17.040;2023-03-25T20:13:28;99071.63;;;10.57;60.72
63351;BME280;64988;51.058;17.040;2023-03-25T20:18:55;99072.69;;;10.46;59.75
63351;BME280;64988;51.058;17.040;2023-03-25T20:24:23;99074.41;;;10.38;60.09
63351;BME280;64988;51.058;17.040;2023-03-25T20:29:51;99073.44;;;10.39;59.73
63351;BME280;64988;51.058;17.040;2023-03-25T20:35:19;99070.88;;;10.37;59.59
63351;BME280;64988;51.058;17.040;2023-03-25T20:40:47;99072.19;;;10.33;58.95
63351;BME280;64988;51.058;17.040;2023-03-25T20:46:15;99068.84;;;10.49;59.43
63351;BME280;64988;51.058;17.040;2023-03-25T20:51:43;99062.78;;;10.65;58.52
63351;BME280;64988;51.058;17.040;2023-03-25T20:57:11;99058.00;;;10.59;58.60
63351;BME280;64988;51.058;17.040;2023-03-25T21:02:40;99052.84;;;10.65;58.75
63351;BME280;64988;51.058;17.040;2023-03-25T21:08:10;99064.97;;;10.79;58.89
63351;BME280;64988;51.058;17.040;2023-03-25T21:13:38;99060.81;;;11.02;58.15
63351;BME280;64988;51.058;17.040;2023-03-25T21:19:08;99066.44;;;11.26;58.27
63351;BME280;64988;51.058;17.040;2023-03-25T21:24:37;99061.72;;;11.46;57.34
63351;BME280;64988;51.058;17.040;2023-03-25T21:30:06;99067.34;;;11.52;57.37
63351;BME280;64988;51.058;17.040;2023-03-25T21:35:36;99056.28;;;11.64;56.93
63351;BME280;64988;51.058;17.040;2023-03-25T21:41:06;99052.13;;;11.69;55.93
63351;BME280;64988;51.058;17.040;2023-03-25T21:46:36;99061.16;;;11.78;56.35
63351;BME280;64988;51.058;17.040;2023-03-25T21:52:04;99056.06;;;11.75;56.35
63351;BME280;64988;51.058;17.040;2023-03-25T21:57:33;99061.00;;;11.79;55.20
63351;BME280;64988;51.058;17.040;2023-03-25T22:03:05;99049.56;;;11.85;54.84
63351;BME280;64988;51.058;17.040;2023-03-25T22:08:32;99055.63;;;11.87;54.89
63351;BME280;64988;51.058;17.040;2023-03-25T22:14:00;99044.78;;;12.05;54.99
63351;BME280;64988;51.058;17.040;2023-03-25T22:19:27;99044.97;;;12.12;53.89
63351;BME280;64988;51.058;17.040;2023-03-25T22:24:57;99029.97;;;12.17;53.32
63351;BME280;64988;51.058;17.040;2023-03-25T22:30:25;99026.22;;;12.18;53.21
63351;BME280;64988;51.058;17.040;2023-03-25T22:36:01;99030.97;;;12.16;53.88
63351;BME280;64988;51.058;17.040;2023-03-25T22:41:29;99032.94;;;12.06;53.42
63351;BME280;64988;51.058;17.040;2023-03-25T22:46:57;99037.44;;;11.97;53.45
63351;BME280;64988;51.058;17.040;2023-03-25T22:52:23;99030.53;;;11.95;54.29
63351;BME280;64988;51.058;17.040;2023-03-25T22:57:51;99030.91;;;12.42;52.72
63351;BME280;64988;51.058;17.040;2023-03-25T23:03:21;99027.91;;;11.59;54.10
63351;BME280;64988;51.058;17.040;2023-03-25T23:08:50;99032.72;;;11.30;55.22
63351;BME280;64988;51.058;17.040;2023-03-25T23:14:18;99031.91;;;10.94;55.98
63351;BME280;64988;51.058;17.040;2023-03-25T23:19:45;99026.66;;;10.75;57.08
63351;BME280;64988;51.058;17.040;2023-03-25T23:25:13;99030.28;;;10.57;57.50
63351;BME280;64988;51.058;17.040;2023-03-25T23:30:42;99023.66;;;10.51;58.64
63351;BME280;64988;51.058;17.040;2023-03-25T23:36:12;99017.66;;;10.39;58.51
63351;BME280;64988;51.058;17.040;2023-03-25T23:41:41;99015.81;;;10.40;58.70
63351;BME280;64988;51.058;17.040;2023-03-25T23:47:09;99011.72;;;10.53;59.11
63351;BME280;64988;51.058;17.040;2023-03-25T23:52:36;99005.59;;;10.79;58.36
63351;BME280;64988;51.058;17.040;2023-03-25T23:58:04;99018.25;;;10.78;58.39
